Weather at Kzeiot Airport

Public forecast

Using degrees Celsius for public forecast. Weather courtesy of forecast.io.

Closest aviation weather report (METAR) to Kzeiot Airport

Closest report is El Arish International Airport, 33.9 nm (62.7 km) WNW.

2024/07/14 17:00 (retrieved 29 minutes ago)

HEAR 141700Z 31008KT CAVOK 31/22 Q1005 NOSIG

Closest aviation forecast (TAF) to Kzeiot Airport

Forecast is more than 12 hours old.

Closest forecast is El Jora Airport, 19.9 nm (36.8 km) NW.

2024/07/12 12:00 (retrieved 2 days ago)

TAF HEGR 121100Z 1212/1318 02008KT CAVOK